createdAt,value
2019-04-26T00:00:56.725Z,1002.4
2019-04-26T00:01:59.373Z,1002.4
2019-04-26T00:03:02.026Z,1002.3
2019-04-26T00:04:04.495Z,1002.3
2019-04-26T00:05:07.807Z,1002.4
2019-04-26T00:06:14.849Z,1002.3
2019-04-26T00:07:19.264Z,1002.4
2019-04-26T00:08:22.758Z,1002.4
2019-04-26T00:09:24.976Z,1002.3
2019-04-26T00:10:27.757Z,1002.4
2019-04-26T00:11:30.400Z,1002.3
2019-04-26T00:12:32.800Z,1002.4
2019-04-26T00:13:35.872Z,1002.3
2019-04-26T00:14:38.781Z,1002.4
2019-04-26T00:15:41.239Z,1002.3
2019-04-26T00:16:44.153Z,1002.3
2019-04-26T00:17:46.348Z,1002.3
2019-04-26T00:18:48.602Z,1002.3
2019-04-26T00:19:51.056Z,1002.3
2019-04-26T00:20:54.132Z,1002.2
2019-04-26T00:21:56.692Z,1002.3
2019-04-26T00:22:59.592Z,1002.3
2019-04-26T00:24:02.045Z,1002.2
2019-04-26T00:25:05.036Z,1002.2
2019-04-26T00:26:07.289Z,1002.3
2019-04-26T00:27:11.248Z,1002.2
2019-04-26T00:28:14.906Z,1002.2
2019-04-26T00:29:19.240Z,1002.2
2019-04-26T00:30:22.515Z,1002.2
2019-04-26T00:31:25.036Z,1002.2
2019-04-26T00:32:27.489Z,1002.1
2019-04-26T00:33:29.756Z,1002.2
2019-04-26T00:34:32.364Z,1002.2
2019-04-26T00:35:48.064Z,1002.1
2019-04-26T00:36:50.428Z,1002
2019-04-26T00:37:52.869Z,1002.1
2019-04-26T00:38:55.125Z,1002.1
2019-04-26T00:39:57.285Z,1002
2019-04-26T00:40:59.528Z,1002
2019-04-26T00:42:01.699Z,1002
2019-04-26T00:43:03.892Z,1002
2019-04-26T00:44:06.118Z,1002
2019-04-26T00:45:08.289Z,1002
2019-04-26T00:46:10.526Z,1001.9
2019-04-26T00:47:15.531Z,1002
2019-04-26T00:48:19.237Z,1002
2019-04-26T00:49:23.547Z,1001.9
2019-04-26T00:50:25.755Z,1001.9
2019-04-26T00:51:27.986Z,1001.9
2019-04-26T00:52:30.538Z,1001.9
2019-04-26T00:53:33.025Z,1001.9
2019-04-26T00:54:35.219Z,1001.9
2019-04-26T00:55:37.689Z,1001.9
2019-04-26T00:56:39.967Z,1001.8
2019-04-26T00:57:42.172Z,1001.8
2019-04-26T00:58:44.720Z,1001.8
2019-04-26T00:59:46.923Z,1001.8
2019-04-26T01:00:49.202Z,1001.8
2019-04-26T01:01:51.747Z,1001.9
2019-04-26T01:02:54.806Z,1001.8
2019-04-26T01:03:57.028Z,1001.8
2019-04-26T01:04:59.316Z,1001.8
2019-04-26T01:06:01.559Z,1001.8
2019-04-26T01:07:04.055Z,1001.7
2019-04-26T01:08:06.480Z,1001.7
2019-04-26T01:09:08.651Z,1001.7
2019-04-26T01:10:10.825Z,1001.7
2019-04-26T01:11:12.999Z,1001.8
2019-04-26T01:12:17.736Z,1001.7
2019-04-26T01:13:20.450Z,1001.6
2019-04-26T01:14:24.730Z,1001.7
2019-04-26T01:15:28.197Z,1001.7
2019-04-26T01:16:30.408Z,1001.6
2019-04-26T01:17:32.543Z,1001.6
2019-04-26T01:18:34.751Z,1001.6
2019-04-26T01:19:36.908Z,1001.6
2019-04-26T01:20:39.094Z,1001.6
2019-04-26T01:21:41.259Z,1001.6
2019-04-26T01:22:43.417Z,1001.7
2019-04-26T01:23:45.616Z,1001.6
2019-04-26T01:24:47.756Z,1001.6
2019-04-26T01:25:49.966Z,1001.7
2019-04-26T01:26:52.099Z,1001.7
2019-04-26T01:27:54.255Z,1001.6
2019-04-26T01:28:56.489Z,1001.6
2019-04-26T01:29:58.717Z,1001.6
2019-04-26T01:31:00.918Z,1001.6
2019-04-26T01:32:03.095Z,1001.6
2019-04-26T01:33:05.506Z,1001.7
2019-04-26T01:34:07.689Z,1001.6
2019-04-26T01:36:46.169Z,1001.6
2019-04-26T01:37:48.391Z,1001.6
2019-04-26T01:38:50.645Z,1001.5
2019-04-26T01:39:52.809Z,1001.6
2019-04-26T01:40:55.067Z,1001.5
2019-04-26T01:41:57.278Z,1001.6
2019-04-26T01:42:59.648Z,1001.5
2019-04-26T01:44:01.950Z,1001.5
2019-04-26T01:45:04.415Z,1001.5
2019-04-26T01:46:06.664Z,1001.5
2019-04-26T01:47:08.820Z,1001.5
2019-04-26T01:48:11.012Z,1001.5
2019-04-26T01:49:13.243Z,1001.5
2019-04-26T01:50:15.437Z,1001.5
2019-04-26T01:51:17.656Z,1001.5
2019-04-26T01:52:19.844Z,1001.5
2019-04-26T01:53:26.861Z,1001.5
2019-04-26T01:54:30.185Z,1001.4
2019-04-26T01:55:33.754Z,1001.4
2019-04-26T01:56:35.986Z,1001.4
2019-04-26T01:57:38.166Z,1001.4
2019-04-26T01:58:40.423Z,1001.4
2019-04-26T01:59:42.603Z,1001.4
2019-04-26T02:00:44.794Z,1001.4
2019-04-26T02:01:47.187Z,1001.4
2019-04-26T02:02:49.373Z,1001.3
2019-04-26T02:03:51.557Z,1001.3
2019-04-26T02:04:53.723Z,1001.3
2019-04-26T02:05:55.888Z,1001.3
2019-04-26T02:06:58.079Z,1001.3
2019-04-26T02:08:00.241Z,1001.3
2019-04-26T02:09:02.498Z,1001.3
2019-04-26T02:10:04.727Z,1001.2
2019-04-26T02:11:06.908Z,1001.3
2019-04-26T02:12:09.436Z,1001.3
2019-04-26T02:13:11.600Z,1001.3
2019-04-26T02:14:13.850Z,1001.2
2019-04-26T02:15:16.268Z,1001.2
2019-04-26T02:16:18.515Z,1001.2
2019-04-26T02:17:20.985Z,1001.2
2019-04-26T02:18:25.704Z,1001.3
2019-04-26T02:19:29.818Z,1001.2
2019-04-26T02:20:34.150Z,1001.2
2019-04-26T02:21:36.524Z,1001.2
2019-04-26T02:22:38.791Z,1001.2
2019-04-26T02:23:41.352Z,1001.2
2019-04-26T02:24:43.976Z,1001.1
2019-04-26T02:25:46.518Z,1001.2
2019-04-26T02:26:49.207Z,1001.1
2019-04-26T02:27:51.459Z,1001.1
2019-04-26T02:28:54.107Z,1001.1
2019-04-26T02:29:56.623Z,1001.1
2019-04-26T02:30:58.891Z,1001.1
2019-04-26T02:32:01.333Z,1001.1
2019-04-26T02:33:03.939Z,1001.1
2019-04-26T02:34:06.283Z,1001
2019-04-26T02:35:08.569Z,1001.1
2019-04-26T02:36:10.840Z,1001
2019-04-26T02:37:13.120Z,1001
2019-04-26T02:38:16.644Z,1001
2019-04-26T02:39:19.423Z,1001
2019-04-26T02:40:22.415Z,1001
2019-04-26T02:41:29.880Z,1001
2019-04-26T02:42:38.947Z,1001
2019-04-26T02:43:41.280Z,1001
2019-04-26T02:44:43.607Z,1001
2019-04-26T02:45:46.465Z,1001
2019-04-26T02:46:49.117Z,1001
2019-04-26T02:47:51.811Z,1001
2019-04-26T02:48:54.059Z,1001
2019-04-26T02:49:56.435Z,1001
2019-04-26T02:50:58.898Z,1001
2019-04-26T02:52:01.891Z,1001
2019-04-26T02:53:04.903Z,1001
2019-04-26T02:54:07.153Z,1001
2019-04-26T02:55:09.881Z,1001
2019-04-26T02:56:12.243Z,1000.9
2019-04-26T02:57:15.532Z,1000.9
2019-04-26T02:58:18.543Z,1001
2019-04-26T02:59:20.839Z,1000.9
2019-04-26T03:00:23.155Z,1000.9
2019-04-26T03:01:25.882Z,1000.8
2019-04-26T03:02:40.802Z,1000.8
2019-04-26T03:03:43.052Z,1000.8
2019-04-26T03:04:45.330Z,1000.8
2019-04-26T03:05:47.559Z,1000.8
2019-04-26T03:07:04.044Z,1000.7
2019-04-26T03:08:07.335Z,1000.7
2019-04-26T03:09:09.946Z,1000.7
2019-04-26T03:10:12.270Z,1000.8
2019-04-26T03:11:17.981Z,1000.7
2019-04-26T03:12:21.243Z,1000.8
2019-04-26T03:13:24.220Z,1000.8
2019-04-26T03:14:26.804Z,1000.7
2019-04-26T03:15:33.428Z,1000.8
2019-04-26T03:16:43.033Z,1000.7
2019-04-26T03:17:45.637Z,1000.7
2019-04-26T03:18:48.690Z,1000.7
2019-04-26T03:19:50.979Z,1000.7
2019-04-26T03:20:53.924Z,1000.7
2019-04-26T03:21:56.590Z,1000.7
2019-04-26T03:22:58.758Z,1000.6
2019-04-26T03:24:01.348Z,1000.6
2019-04-26T03:25:04.242Z,1000.6
2019-04-26T03:26:06.752Z,1000.5
2019-04-26T03:27:09.332Z,1000.6
2019-04-26T03:28:12.039Z,1000.5
2019-04-26T03:29:14.302Z,1000.5
2019-04-26T03:30:23.351Z,1000.5
2019-04-26T03:31:26.139Z,1000.5
2019-04-26T03:32:28.728Z,1000.5
2019-04-26T03:33:46.270Z,1000.6
2019-04-26T03:34:57.759Z,1000.5
2019-04-26T03:36:00.506Z,1000.5
2019-04-26T03:37:21.409Z,1000.5
2019-04-26T03:38:24.424Z,1000.5
2019-04-26T03:39:26.891Z,1000.5
2019-04-26T03:40:29.536Z,1000.6
2019-04-26T03:41:36.670Z,1000.5
2019-04-26T03:42:45.833Z,1000.5
2019-04-26T03:43:48.884Z,1000.5
2019-04-26T03:44:51.499Z,1000.5
2019-04-26T03:45:54.131Z,1000.5
2019-04-26T03:46:56.376Z,1000.5
2019-04-26T03:47:58.999Z,1000.5
2019-04-26T03:49:01.535Z,1000.5
2019-04-26T03:50:03.745Z,1000.5
2019-04-26T03:51:06.273Z,1000.5
2019-04-26T03:52:08.731Z,1000.4
2019-04-26T03:53:11.204Z,1000.4
2019-04-26T03:54:13.432Z,1000.4
2019-04-26T03:55:15.627Z,1000.4
2019-04-26T03:56:18.225Z,1000.4
2019-04-26T03:57:21.450Z,1000.4
2019-04-26T03:58:23.733Z,1000.4
2019-04-26T03:59:26.011Z,1000.4
2019-04-26T04:00:28.768Z,1000.4
2019-04-26T04:01:31.073Z,1000.4
2019-04-26T04:02:33.622Z,1000.4
2019-04-26T04:03:48.231Z,1000.4
2019-04-26T04:04:50.757Z,1000.4
2019-04-26T04:05:53.308Z,1000.5
2019-04-26T04:07:05.269Z,1000.4
2019-04-26T04:08:07.803Z,1000.4
2019-04-26T04:09:10.319Z,1000.4
2019-04-26T04:10:12.565Z,1000.4
2019-04-26T04:11:14.727Z,1000.4
2019-04-26T04:12:17.926Z,1000.4
2019-04-26T04:13:20.489Z,1000.4
2019-04-26T04:14:23.087Z,1000.4
2019-04-26T04:15:25.785Z,1000.4
2019-04-26T04:16:28.325Z,1000.4
2019-04-26T04:17:30.586Z,1000.4
2019-04-26T04:18:33.247Z,1000.5
2019-04-26T04:19:35.429Z,1000.5
2019-04-26T04:20:46.175Z,1000.5
2019-04-26T04:21:50.435Z,1000.5
2019-04-26T04:22:53.092Z,1000.5
2019-04-26T04:23:55.331Z,1000.5
2019-04-26T04:24:57.544Z,1000.5
2019-04-26T04:26:00.086Z,1000.4
2019-04-26T04:27:03.087Z,1000.4
2019-04-26T04:28:05.887Z,1000.4
2019-04-26T04:29:08.440Z,1000.4
2019-04-26T04:30:11.211Z,1000.4
2019-04-26T04:31:13.660Z,1000.4
2019-04-26T04:32:15.855Z,1000.4
2019-04-26T04:33:18.638Z,1000.4
2019-04-26T04:34:21.255Z,1000.4
2019-04-26T04:35:23.867Z,1000.5
2019-04-26T04:36:26.399Z,1000.4
2019-04-26T04:37:28.607Z,1000.5
2019-04-26T04:38:30.801Z,1000.5
2019-04-26T04:39:33.862Z,1000.5
2019-04-26T04:40:36.731Z,1000.5
2019-04-26T04:41:41.615Z,1000.5
2019-04-26T04:42:52.294Z,1000.5
2019-04-26T04:43:54.883Z,1000.6
2019-04-26T04:44:57.170Z,1000.6
2019-04-26T04:45:59.604Z,1000.7
2019-04-26T04:47:02.016Z,1000.7
2019-04-26T04:48:04.596Z,1000.8
2019-04-26T04:49:06.794Z,1000.8
2019-04-26T04:50:09.438Z,1000.9
2019-04-26T04:51:11.938Z,1000.9
2019-04-26T04:52:14.681Z,1000.9
2019-04-26T04:53:17.211Z,1000.9
2019-04-26T04:54:20.536Z,1000.8
2019-04-26T04:55:23.227Z,1000.7
2019-04-26T04:56:25.721Z,1000.7
2019-04-26T04:57:27.892Z,1000.7
2019-04-26T04:58:30.935Z,1000.6
2019-04-26T04:59:33.119Z,1000.6
2019-04-26T05:00:35.223Z,1000.6
2019-04-26T05:01:37.486Z,1000.6
2019-04-26T05:02:39.974Z,1000.6
2019-04-26T05:03:43.862Z,1000.5
2019-04-26T05:04:49.180Z,1000.6
2019-04-26T05:06:07.847Z,1000.5
2019-04-26T05:07:10.088Z,1000.5
2019-04-26T05:08:12.256Z,1000.5
2019-04-26T05:09:14.566Z,1000.5
2019-04-26T05:10:16.765Z,1000.5
2019-04-26T05:11:19.234Z,1000.5
2019-04-26T05:12:21.819Z,1000.5
2019-04-26T05:13:24.082Z,1000.5
2019-04-26T05:14:26.749Z,1000.5
2019-04-26T05:15:28.932Z,1000.5
2019-04-26T05:16:33.344Z,1000.5
2019-04-26T05:17:35.997Z,1000.5
2019-04-26T05:18:38.157Z,1000.5
2019-04-26T05:19:40.632Z,1000.5
2019-04-26T05:20:42.943Z,1000.4
2019-04-26T05:21:49.038Z,1000.5
2019-04-26T05:22:51.472Z,1000.4
2019-04-26T05:23:55.488Z,1000.5
2019-04-26T05:24:57.609Z,1000.5
2019-04-26T05:26:00.061Z,1000.4
2019-04-26T05:27:02.253Z,1000.4
2019-04-26T05:28:04.769Z,1000.5
2019-04-26T05:29:07.297Z,1000.5
2019-04-26T05:30:09.543Z,1000.5
2019-04-26T05:31:11.702Z,1000.5
2019-04-26T05:32:14.143Z,1000.6
2019-04-26T05:33:16.633Z,1000.5
2019-04-26T05:34:19.136Z,1000.5
2019-04-26T05:35:22.047Z,1000.5
2019-04-26T05:36:24.231Z,1000.5
2019-04-26T05:37:26.762Z,1000.5
2019-04-26T05:38:29.071Z,1000.5
2019-04-26T05:39:31.311Z,1000.5
2019-04-26T05:40:33.765Z,1000.5
2019-04-26T05:41:35.931Z,1000.4
2019-04-26T05:42:38.183Z,1000.4
2019-04-26T05:43:40.343Z,1000.4
2019-04-26T05:44:42.535Z,1000.4
2019-04-26T05:45:44.810Z,1000.4
2019-04-26T05:46:47.390Z,1000.4
2019-04-26T05:48:11.366Z,1000.3
2019-04-26T05:49:14.315Z,1000.3
2019-04-26T05:50:16.482Z,1000.3
2019-04-26T05:51:19.003Z,1000.3
2019-04-26T05:52:21.139Z,1000.3
2019-04-26T05:53:23.398Z,1000.3
2019-04-26T05:54:25.861Z,1000.3
2019-04-26T05:55:28.021Z,1000.3
2019-04-26T05:56:30.262Z,1000.3
2019-04-26T05:57:32.451Z,1000.3
2019-04-26T05:58:34.901Z,1000.3
2019-04-26T05:59:37.479Z,1000.3
2019-04-26T06:00:39.999Z,1000.3
2019-04-26T06:01:42.175Z,1000.3
2019-04-26T06:02:44.413Z,1000.2
2019-04-26T06:03:46.615Z,1000.2
2019-04-26T06:04:48.847Z,1000.3
2019-04-26T06:05:52.618Z,1000.2
2019-04-26T06:06:55.952Z,1000.2
2019-04-26T06:07:59.615Z,1000.2
2019-04-26T06:09:02.000Z,1000.2
2019-04-26T06:10:04.164Z,1000.2
2019-04-26T06:11:06.403Z,1000.3
2019-04-26T06:12:08.568Z,1000.2
2019-04-26T06:13:10.759Z,1000.3
2019-04-26T06:14:13.147Z,1000.3
2019-04-26T06:15:15.316Z,1000.2
2019-04-26T06:16:17.593Z,1000.2
2019-04-26T06:17:19.771Z,1000.3
2019-04-26T06:18:21.971Z,1000.3
2019-04-26T06:19:24.224Z,1000.3
2019-04-26T06:20:26.407Z,1000.3
2019-04-26T06:21:28.582Z,1000.4
2019-04-26T06:22:30.761Z,1000.4
2019-04-26T06:23:32.925Z,1000.4
2019-04-26T06:24:35.164Z,1000.4
2019-04-26T06:25:37.425Z,1000.4
2019-04-26T06:26:39.897Z,1000.3
2019-04-26T06:27:42.155Z,1000.3
2019-04-26T06:28:44.347Z,1000.3
2019-04-26T06:29:46.624Z,1000.3
2019-04-26T06:30:49.143Z,1000.3
2019-04-26T06:31:51.341Z,1000.3
2019-04-26T06:33:04.676Z,1000.3
2019-04-26T06:34:08.383Z,1000.3
2019-04-26T06:35:10.694Z,1000.3
2019-04-26T06:36:13.361Z,1000.2
2019-04-26T06:37:16.324Z,1000.3
2019-04-26T06:38:18.536Z,1000.2
2019-04-26T06:39:20.793Z,1000.3
2019-04-26T06:40:23.035Z,1000.3
2019-04-26T06:41:25.222Z,1000.3
2019-04-26T06:42:27.380Z,1000.2
2019-04-26T06:43:29.687Z,1000.2
2019-04-26T06:44:31.883Z,1000.2
2019-04-26T06:45:34.102Z,1000.2
2019-04-26T06:46:36.455Z,1000.2
2019-04-26T06:47:38.653Z,1000.1
2019-04-26T06:48:40.848Z,1000.1
2019-04-26T06:49:43.095Z,1000.2
2019-04-26T06:50:45.295Z,1000.1
2019-04-26T06:51:47.524Z,1000.1
2019-04-26T06:52:49.704Z,1000.1
2019-04-26T06:53:51.880Z,1000.1
2019-04-26T06:54:54.133Z,1000.1
2019-04-26T06:55:59.484Z,1000.1
2019-04-26T06:57:14.948Z,1000.1
2019-04-26T06:58:17.760Z,1000.1
2019-04-26T06:59:20.659Z,1000.1
2019-04-26T07:00:23.201Z,1000.1
2019-04-26T07:01:25.319Z,1000.1
2019-04-26T07:02:27.484Z,1000.1
2019-04-26T07:03:29.783Z,1000.1
2019-04-26T07:04:31.968Z,1000.2
2019-04-26T07:05:34.392Z,1000.1
2019-04-26T07:06:36.639Z,1000.2
2019-04-26T07:07:38.960Z,1000.1
2019-04-26T07:08:41.200Z,1000.2
2019-04-26T07:09:43.720Z,1000.2
2019-04-26T07:10:46.032Z,1000.2
2019-04-26T07:11:48.402Z,1000.3
2019-04-26T07:12:50.699Z,1000.2
2019-04-26T07:13:52.944Z,1000.3
2019-04-26T07:14:55.232Z,1000.3
2019-04-26T07:15:57.393Z,1000.3
2019-04-26T07:17:00.881Z,1000.3
2019-04-26T07:18:04.698Z,1000.3
2019-04-26T07:19:09.401Z,1000.3
2019-04-26T07:20:13.735Z,1000.3
2019-04-26T07:21:16.676Z,1000.3
2019-04-26T07:22:19.151Z,1000.3
2019-04-26T07:23:21.317Z,1000.3
2019-04-26T07:24:23.520Z,1000.3
2019-04-26T07:25:26.073Z,1000.3
2019-04-26T07:26:28.254Z,1000.3
2019-04-26T07:27:30.436Z,1000.3
2019-04-26T07:28:32.630Z,1000.3
2019-04-26T07:29:34.824Z,1000.3
2019-04-26T07:30:37.126Z,1000.3
2019-04-26T07:31:39.331Z,1000.3
2019-04-26T07:32:41.491Z,1000.3
2019-04-26T07:33:43.820Z,1000.2
2019-04-26T07:34:46.019Z,1000.3
2019-04-26T07:35:48.544Z,1000.2
2019-04-26T07:36:51.536Z,1000.2
2019-04-26T07:37:53.790Z,1000.2
2019-04-26T07:38:56.304Z,1000.3
2019-04-26T07:40:23.011Z,1000.2
2019-04-26T07:41:25.195Z,1000.3
2019-04-26T07:42:27.431Z,1000.2
2019-04-26T07:43:29.605Z,1000.2
2019-04-26T07:44:32.176Z,1000.2
2019-04-26T07:45:34.412Z,1000.2
2019-04-26T07:46:36.900Z,1000.2
2019-04-26T07:47:39.449Z,1000.2
2019-04-26T07:48:41.646Z,1000.2
2019-04-26T07:49:43.833Z,1000.2
2019-04-26T07:50:46.082Z,1000.2
2019-04-26T07:51:48.350Z,1000.1
2019-04-26T07:52:50.636Z,1000.1
2019-04-26T07:53:52.872Z,1000.2
2019-04-26T07:54:55.062Z,1000.2
2019-04-26T07:55:57.640Z,1000.2
2019-04-26T07:56:59.862Z,1000.2
2019-04-26T07:58:05.180Z,1000.2
2019-04-26T07:59:09.060Z,1000.2
2019-04-26T08:00:13.280Z,1000.2
2019-04-26T08:01:15.785Z,1000.2
2019-04-26T08:02:18.049Z,1000.2
2019-04-26T08:03:20.221Z,1000.2
2019-04-26T08:04:22.416Z,1000.2
2019-04-26T08:05:24.894Z,1000.2
2019-04-26T08:06:27.067Z,1000.3
2019-04-26T08:07:29.326Z,1000.3
2019-04-26T08:08:31.529Z,1000.3
2019-04-26T08:09:33.952Z,1000.3
2019-04-26T08:10:36.210Z,1000.3
2019-04-26T08:11:38.401Z,1000.3
2019-04-26T08:12:40.686Z,1000.3
2019-04-26T08:13:42.886Z,1000.3
2019-04-26T08:14:45.144Z,1000.3
2019-04-26T08:15:47.315Z,1000.3
2019-04-26T08:16:49.778Z,1000.3
2019-04-26T08:17:52.038Z,1000.3
2019-04-26T08:18:54.310Z,1000.3
2019-04-26T08:19:58.873Z,1000.2
2019-04-26T08:21:07.646Z,1000.2
2019-04-26T08:22:28.592Z,1000.2
2019-04-26T08:23:43.267Z,1000.2
2019-04-26T08:24:46.068Z,1000.2
2019-04-26T08:25:48.345Z,1000.2
2019-04-26T08:26:50.515Z,1000.2
2019-04-26T08:27:52.777Z,1000.3
2019-04-26T08:29:00.510Z,1000.3
2019-04-26T08:30:14.197Z,1000.3
2019-04-26T08:31:27.608Z,1000.3
2019-04-26T08:32:33.405Z,1000.3
2019-04-26T08:33:35.657Z,1000.3
2019-04-26T08:34:37.787Z,1000.4
2019-04-26T08:35:40.324Z,1000.5
2019-04-26T08:37:03.081Z,1000.4
2019-04-26T08:38:15.846Z,1000.4
2019-04-26T08:39:45.063Z,1000.4
2019-04-26T08:40:53.840Z,1000.3
2019-04-26T08:41:56.002Z,1000.4
2019-04-26T08:42:59.020Z,1000.3
2019-04-26T08:44:05.748Z,1000.4
2019-04-26T08:45:15.403Z,1000.4
2019-04-26T08:46:20.412Z,1000.4
2019-04-26T08:47:26.688Z,1000.3
2019-04-26T08:48:29.917Z,1000.3
2019-04-26T08:49:39.038Z,1000.4
2019-04-26T08:50:45.849Z,1000.3
2019-04-26T08:51:55.875Z,1000.4
2019-04-26T08:52:59.436Z,1000.4
2019-04-26T08:54:01.694Z,1000.4
2019-04-26T08:55:03.883Z,1000.4
2019-04-26T08:56:06.082Z,1000.3
2019-04-26T08:57:08.291Z,1000.4
2019-04-26T08:58:10.664Z,1000.4
2019-04-26T08:59:12.941Z,1000.4
2019-04-26T09:00:15.776Z,1000.4
2019-04-26T09:01:17.978Z,1000.4
2019-04-26T09:02:20.608Z,1000.4
2019-04-26T09:03:22.801Z,1000.4
2019-04-26T09:04:25.042Z,1000.4
2019-04-26T09:05:27.509Z,1000.4
2019-04-26T09:06:29.778Z,1000.5
2019-04-26T09:07:32.123Z,1000.5
2019-04-26T09:08:34.832Z,1000.5
2019-04-26T09:09:40.585Z,1000.4
2019-04-26T09:10:44.320Z,1000.5
2019-04-26T09:11:46.530Z,1000.4
2019-04-26T09:13:10.992Z,1000.4
2019-04-26T09:14:13.459Z,1000.4
2019-04-26T09:15:15.704Z,1000.4
2019-04-26T09:16:18.479Z,1000.4
2019-04-26T09:17:21.457Z,1000.4
2019-04-26T09:18:23.631Z,1000.4
2019-04-26T09:19:30.391Z,1000.4
2019-04-26T09:20:38.431Z,1000.4
2019-04-26T09:21:51.704Z,1000.5
2019-04-26T09:23:04.988Z,1000.5
2019-04-26T09:24:08.976Z,1000.5
2019-04-26T09:25:11.296Z,1000.5
2019-04-26T09:26:14.062Z,1000.6
2019-04-26T09:27:20.909Z,1000.5
2019-04-26T09:28:24.489Z,1000.5
2019-04-26T09:29:32.058Z,1000.5
2019-04-26T09:30:41.891Z,1000.5
2019-04-26T09:31:54.444Z,1000.5
2019-04-26T09:33:02.927Z,1000.6
2019-04-26T09:34:10.351Z,1000.6
2019-04-26T09:35:16.338Z,1000.6
2019-04-26T09:36:18.991Z,1000.6
2019-04-26T09:37:21.283Z,1000.6
2019-04-26T09:38:23.582Z,1000.6
2019-04-26T09:39:26.009Z,1000.6
2019-04-26T09:40:28.203Z,1000.6
2019-04-26T09:41:32.169Z,1000.5
2019-04-26T09:42:34.420Z,1000.5
2019-04-26T09:43:42.813Z,1000.5
2019-04-26T09:44:44.996Z,1000.5
2019-04-26T09:45:48.517Z,1000.5
2019-04-26T09:46:54.288Z,1000.5
2019-04-26T09:47:57.017Z,1000.5
2019-04-26T09:48:59.272Z,1000.6
2019-04-26T09:50:15.316Z,1000.6
2019-04-26T09:51:19.202Z,1000.6
2019-04-26T09:52:21.399Z,1000.6
2019-04-26T09:53:23.580Z,1000.5
2019-04-26T09:54:25.855Z,1000.5
2019-04-26T09:55:35.961Z,1000.5
2019-04-26T09:56:38.535Z,1000.5
2019-04-26T09:57:40.679Z,1000.6
2019-04-26T09:58:42.854Z,1000.5
2019-04-26T09:59:45.120Z,1000.5
2019-04-26T10:00:50.229Z,1000.5
2019-04-26T10:01:59.309Z,1000.5
2019-04-26T10:03:09.289Z,1000.6
2019-04-26T10:04:12.818Z,1000.6
2019-04-26T10:05:22.137Z,1000.6
2019-04-26T10:06:29.633Z,1000.6
2019-04-26T10:07:37.420Z,1000.7
2019-04-26T10:08:46.993Z,1000.7
2019-04-26T10:09:56.045Z,1000.7
2019-04-26T10:11:09.540Z,1000.7
2019-04-26T10:12:12.922Z,1000.7
2019-04-26T10:13:15.436Z,1000.6
2019-04-26T10:14:17.897Z,1000.7
2019-04-26T10:15:26.662Z,1000.7
2019-04-26T10:16:37.306Z,1000.7
2019-04-26T10:17:50.123Z,1000.6
2019-04-26T10:18:58.223Z,1000.6
2019-04-26T10:20:01.439Z,1000.6
2019-04-26T10:21:04.570Z,1000.6
2019-04-26T10:22:07.394Z,1000.6
2019-04-26T10:23:09.705Z,1000.5
2019-04-26T10:24:11.906Z,1000.6
2019-04-26T10:25:17.102Z,1000.6
2019-04-26T10:26:23.136Z,1000.7
2019-04-26T10:27:36.284Z,1000.7
2019-04-26T10:28:50.588Z,1000.6
2019-04-26T10:30:07.586Z,1000.7
2019-04-26T10:31:17.125Z,1000.7
2019-04-26T10:32:26.195Z,1000.7
2019-04-26T10:33:36.431Z,1000.8
2019-04-26T10:34:47.236Z,1000.8
2019-04-26T10:35:56.587Z,1000.8
2019-04-26T10:37:05.986Z,1000.8
2019-04-26T10:38:10.325Z,1000.8
2019-04-26T10:39:12.574Z,1000.8
2019-04-26T10:40:14.801Z,1000.8
2019-04-26T10:41:16.988Z,1000.8
2019-04-26T10:42:19.243Z,1000.9
2019-04-26T10:43:21.464Z,1000.9
2019-04-26T10:44:23.786Z,1000.8
2019-04-26T10:45:25.988Z,1000.8
2019-04-26T10:46:29.684Z,1000.8
2019-04-26T10:47:38.278Z,1000.9
2019-04-26T10:48:49.646Z,1000.8
2019-04-26T10:49:58.104Z,1000.8
2019-04-26T10:51:07.256Z,1000.8
2019-04-26T10:52:15.731Z,1000.8
2019-04-26T10:53:19.137Z,1000.8
2019-04-26T10:54:23.945Z,1000.8
2019-04-26T10:55:26.248Z,1000.8
2019-04-26T10:56:28.441Z,1000.8
2019-04-26T10:57:30.697Z,1000.8
2019-04-26T10:58:37.773Z,1000.8
2019-04-26T10:59:45.538Z,1000.9
2019-04-26T11:00:52.602Z,1000.8
2019-04-26T11:01:56.500Z,1000.8
2019-04-26T11:03:04.394Z,1000.9
2019-04-26T11:04:08.288Z,1000.9
2019-04-26T11:05:18.204Z,1000.9
2019-04-26T11:06:27.760Z,1000.9
2019-04-26T11:07:31.164Z,1001
2019-04-26T11:08:33.360Z,1001
2019-04-26T11:09:35.838Z,1001
2019-04-26T11:10:49.050Z,1001
2019-04-26T11:11:51.632Z,1001
2019-04-26T11:12:53.888Z,1001
2019-04-26T11:13:57.866Z,1001.1
2019-04-26T11:15:00.249Z,1001
2019-04-26T11:16:08.730Z,1001.1
2019-04-26T11:17:17.720Z,1001
2019-04-26T11:18:28.600Z,1001
2019-04-26T11:19:35.419Z,1001.1
2019-04-26T11:20:45.556Z,1001.1
2019-04-26T11:21:54.714Z,1001.1
2019-04-26T11:22:57.995Z,1001.1
2019-04-26T11:24:00.607Z,1001
2019-04-26T11:25:02.886Z,1001
2019-04-26T11:26:05.092Z,1001.1
2019-04-26T11:27:11.193Z,1001
2019-04-26T11:28:17.082Z,1001
2019-04-26T11:29:28.715Z,1001
2019-04-26T11:30:32.712Z,1001
2019-04-26T11:31:35.088Z,1001
2019-04-26T11:32:38.478Z,1001.1
2019-04-26T11:33:49.416Z,1001.1
2019-04-26T11:34:58.610Z,1001.1
2019-04-26T11:38:03.428Z,1001.1
2019-04-26T11:39:07.740Z,1001.2
2019-04-26T11:40:15.808Z,1001.2
2019-04-26T11:41:18.290Z,1001.3
2019-04-26T11:42:20.547Z,1001.2
2019-04-26T11:43:23.126Z,1001.2
2019-04-26T11:44:28.528Z,1001.2
2019-04-26T11:45:30.908Z,1001.3
2019-04-26T11:46:45.490Z,1001.3
2019-04-26T11:47:56.716Z,1001.3
2019-04-26T11:49:03.118Z,1001.4
2019-04-26T11:50:16.025Z,1001.2
2019-04-26T11:51:27.471Z,1001.3
2019-04-26T11:52:35.903Z,1001.4
2019-04-26T11:53:44.616Z,1001.5
2019-04-26T11:54:55.109Z,1001.5
2019-04-26T11:56:04.664Z,1001.5
2019-04-26T11:57:13.562Z,1001.5
2019-04-26T11:58:22.379Z,1001.4
2019-04-26T11:59:30.513Z,1001.5
2019-04-26T12:00:33.831Z,1001.5
2019-04-26T12:01:40.363Z,1001.4
2019-04-26T12:02:50.639Z,1001.5
2019-04-26T12:04:00.756Z,1001.4
2019-04-26T12:05:03.153Z,1001.5
2019-04-26T12:06:05.334Z,1001.5
2019-04-26T12:07:07.816Z,1001.6
2019-04-26T12:08:10.010Z,1001.5
2019-04-26T12:09:12.214Z,1001.5
2019-04-26T12:10:14.459Z,1001.5
2019-04-26T12:11:25.843Z,1001.4
2019-04-26T12:12:37.154Z,1001.6
2019-04-26T12:13:39.274Z,1001.5
2019-04-26T12:14:41.494Z,1001.5
2019-04-26T12:15:45.506Z,1001.6
2019-04-26T12:16:58.710Z,1001.7
2019-04-26T12:18:09.612Z,1001.5
2019-04-26T12:19:19.479Z,1001.5
2019-04-26T12:20:26.763Z,1001.5
2019-04-26T12:21:35.101Z,1001.5
2019-04-26T12:22:43.497Z,1001.5
2019-04-26T12:23:46.756Z,1001.4
2019-04-26T12:24:52.794Z,1001.5
2019-04-26T12:25:55.337Z,1001.4
2019-04-26T12:26:57.836Z,1001.4
2019-04-26T12:28:05.950Z,1001.5
2019-04-26T12:29:14.626Z,1001.5
2019-04-26T12:30:17.643Z,1001.5
2019-04-26T12:31:19.821Z,1001.5
2019-04-26T12:32:22.056Z,1001.4
2019-04-26T12:33:24.422Z,1001.5
2019-04-26T12:34:28.266Z,1001.5
2019-04-26T12:35:35.183Z,1001.5
2019-04-26T12:36:37.391Z,1001.4
2019-04-26T12:37:39.648Z,1001.4
2019-04-26T12:38:41.984Z,1001.4
2019-04-26T12:39:44.185Z,1001.4
2019-04-26T12:40:47.799Z,1001.5
2019-04-26T12:41:50.323Z,1001.4
2019-04-26T12:42:52.595Z,1001.4
2019-04-26T12:44:03.227Z,1001.4
2019-04-26T12:45:05.598Z,1001.4
2019-04-26T12:46:07.813Z,1001.3
2019-04-26T12:47:10.000Z,1001.4
2019-04-26T12:48:15.691Z,1001.3
2019-04-26T12:49:24.199Z,1001.3
2019-04-26T12:50:35.105Z,1001.4
2019-04-26T12:51:47.162Z,1001.4
2019-04-26T12:52:57.349Z,1001.3
2019-04-26T12:53:59.640Z,1001.4
2019-04-26T12:55:18.245Z,1001.3
2019-04-26T12:56:22.460Z,1001.4
2019-04-26T12:57:40.708Z,1001.4
2019-04-26T12:58:49.887Z,1001.4
2019-04-26T12:59:53.452Z,1001.5
2019-04-26T13:01:13.241Z,1001.5
2019-04-26T13:02:20.747Z,1001.5
2019-04-26T13:03:29.169Z,1001.5
2019-04-26T13:04:40.469Z,1001.4
2019-04-26T13:05:57.595Z,1001.5
2019-04-26T13:07:06.783Z,1001.5
2019-04-26T13:08:26.021Z,1001.5
2019-04-26T13:09:28.337Z,1001.4
2019-04-26T13:10:36.785Z,1001.6
2019-04-26T13:11:49.227Z,1001.5
2019-04-26T13:12:59.471Z,1001.5
2019-04-26T13:14:01.752Z,1001.6
2019-04-26T13:15:04.388Z,1001.6
2019-04-26T13:16:06.874Z,1001.6
2019-04-26T13:17:09.031Z,1001.5
2019-04-26T13:18:12.598Z,1001.6
2019-04-26T13:19:19.802Z,1001.6
2019-04-26T13:20:28.665Z,1001.6
2019-04-26T13:21:37.211Z,1001.6
2019-04-26T13:22:50.162Z,1001.7
2019-04-26T13:24:05.846Z,1001.7
2019-04-26T13:25:26.162Z,1001.6
2019-04-26T13:26:42.840Z,1001.7
2019-04-26T13:27:46.604Z,1001.8
2019-04-26T13:28:57.000Z,1001.7
2019-04-26T13:30:02.902Z,1001.8